createdAt,value
2014-07-15T19:16:47.468Z,55
2014-07-15T19:17:05.686Z,55
2014-07-15T19:17:23.936Z,55
2014-07-15T19:17:42.204Z,55
2014-07-15T19:30:24.508Z,55
2014-07-15T19:30:42.885Z,54
2014-07-15T19:31:01.260Z,54
2014-07-15T19:31:19.604Z,54
2014-07-15T19:31:37.934Z,54
2014-07-15T19:31:56.184Z,54
2014-07-15T19:32:14.434Z,54
2014-07-15T19:32:33.856Z,54
2014-07-15T19:32:52.686Z,54
2014-07-15T19:33:10.921Z,54
2014-07-15T19:33:43.954Z,54
2014-07-15T19:34:02.298Z,54
2014-07-15T19:34:20.985Z,54
2014-07-15T19:34:39.503Z,54
2014-07-15T19:34:57.956Z,54
2014-07-15T19:35:16.346Z,54
2014-07-15T19:35:34.987Z,54
2014-07-15T19:35:54.427Z,54
2014-07-15T19:36:12.567Z,54
2014-07-15T19:36:31.177Z,54
2014-07-15T19:36:49.694Z,54
2014-07-15T19:37:08.085Z,54
2014-07-15T19:37:27.241Z,54
2014-07-15T19:37:46.540Z,54
2014-07-15T19:38:04.837Z,54
2014-07-15T19:38:23.431Z,54
2014-07-15T19:38:41.838Z,54
2014-07-15T19:39:00.572Z,54
2014-07-15T19:39:18.791Z,54
2014-07-15T19:39:51.861Z,54
2014-07-15T19:40:11.002Z,54
2014-07-15T19:40:43.619Z,54
2014-07-15T19:41:02.541Z,54
2014-07-15T20:12:50.963Z,54
2014-07-15T20:13:09.182Z,53
2014-07-15T20:13:27.417Z,53
2014-07-15T20:13:45.872Z,53
2014-07-15T20:14:04.090Z,53
2014-07-15T20:14:22.544Z,53
2014-07-15T20:14:40.779Z,53
2014-07-15T20:14:58.998Z,53
2014-07-15T20:15:31.779Z,54
2014-07-15T20:15:50.735Z,54
2014-07-15T20:16:08.766Z,54
2014-07-15T20:16:27.001Z,54
2014-07-15T20:16:45.237Z,54
2014-07-15T20:17:03.456Z,54
2014-07-15T20:17:21.690Z,54
2014-07-15T20:17:39.988Z,54
2014-07-15T20:17:58.207Z,54
2014-07-15T20:18:16.410Z,54
2014-07-15T20:18:34.644Z,53
2014-07-15T20:18:52.882Z,53
2014-07-15T20:19:11.194Z,53
2014-07-15T20:19:29.616Z,53
2014-07-15T20:19:47.851Z,53
2014-07-15T20:20:06.101Z,53
2014-07-15T20:20:24.336Z,53
2014-07-15T20:20:43.119Z,53
2014-07-15T20:21:01.541Z,53
2014-07-15T20:21:19.791Z,53
2014-07-15T20:21:38.012Z,53
2014-07-15T20:21:56.230Z,52
2014-07-15T20:22:14.449Z,52
2014-07-15T20:22:32.699Z,52
2014-07-15T20:22:50.936Z,52
2014-07-15T20:23:09.154Z,52
2014-07-15T20:23:27.357Z,52
2014-07-15T20:23:45.656Z,52
2014-07-15T20:24:04.422Z,52
2014-07-15T20:24:23.109Z,52
2014-07-15T20:24:41.203Z,52
2014-07-15T20:24:59.455Z,52
2014-07-15T20:25:17.705Z,52
2014-07-15T20:25:35.924Z,52
2014-07-15T20:25:54.192Z,52
2014-07-15T20:26:12.410Z,51
2014-07-15T20:26:30.645Z,51
2014-07-15T20:26:48.849Z,51
2014-07-15T20:27:07.318Z,51
2014-07-15T20:27:25.552Z,51
2014-07-15T20:27:43.771Z,51
2014-07-15T20:28:02.024Z,51
2014-07-15T20:28:20.242Z,50
2014-07-15T20:28:38.524Z,50
2014-07-15T20:28:56.760Z,50
2014-07-15T20:29:14.979Z,50
2014-07-15T20:29:33.198Z,50
2014-07-15T20:29:51.434Z,50
2014-07-15T20:30:09.653Z,50
2014-07-15T20:30:27.903Z,50
2014-07-15T20:30:46.121Z,50
2014-07-15T20:31:04.342Z,50
2014-07-15T20:31:22.577Z,50
2014-07-15T20:31:40.873Z,49
2014-07-15T20:31:59.265Z,49
2014-07-15T20:32:17.499Z,49
2014-07-15T20:32:35.718Z,49
2014-07-15T20:32:54.002Z,49
2014-07-15T20:33:12.221Z,48
2014-07-15T20:33:30.471Z,48
2014-07-15T20:33:48.708Z,48
2014-07-15T20:34:06.942Z,48
2014-07-15T20:34:25.176Z,48
2014-07-15T20:34:43.489Z,48
2014-07-15T20:35:01.974Z,48
2014-07-15T20:35:20.084Z,48
2014-07-15T20:35:38.365Z,48
2014-07-15T20:35:56.587Z,48
2014-07-15T20:36:14.805Z,48
2014-07-15T20:36:33.102Z,48
2014-07-15T20:36:52.931Z,48
2014-07-15T20:37:11.509Z,48
2014-07-15T20:37:29.713Z,48
2014-07-15T20:37:47.963Z,48
2014-07-15T20:38:06.277Z,48
2014-07-15T20:38:24.496Z,47
2014-07-15T20:38:43.480Z,47
2014-07-15T20:39:01.732Z,47
2014-07-15T20:39:22.451Z,47
2014-07-15T20:39:40.170Z,47
2014-07-15T20:39:59.000Z,47
2014-07-15T20:40:17.234Z,47
2014-07-15T20:40:35.469Z,47
2014-07-15T20:40:53.705Z,47
2014-07-15T20:41:11.924Z,47
2014-07-15T20:41:30.158Z,47
2014-07-15T20:41:48.392Z,47
2014-07-15T20:42:06.598Z,47
2014-07-15T20:42:24.816Z,47
2014-07-15T20:42:43.066Z,47
2014-07-15T20:43:01.287Z,47
2014-07-15T20:43:19.490Z,47
2014-07-15T20:43:37.709Z,47
2014-07-15T20:43:55.959Z,47
2014-07-15T20:44:14.164Z,47
2014-07-15T20:44:32.383Z,46
2014-07-15T20:44:50.633Z,46
2014-07-15T20:45:08.869Z,46
2014-07-15T20:45:27.979Z,46
2014-07-15T20:45:46.088Z,46
2014-07-15T20:46:04.309Z,46
2014-07-15T20:46:22.543Z,46
2014-07-15T20:46:40.793Z,46
2014-07-15T20:46:58.998Z,46
2014-07-15T20:47:17.217Z,46
2014-07-15T20:47:35.467Z,46
2014-07-15T20:47:53.701Z,46
2014-07-15T20:48:12.000Z,46
2014-07-15T20:48:30.235Z,46
2014-07-15T20:48:48.469Z,46
2014-07-15T20:49:06.689Z,46
2014-07-15T20:49:24.892Z,46
2014-07-15T20:49:43.126Z,46
2014-07-15T20:50:02.066Z,46
2014-07-15T20:50:20.753Z,46
2014-07-15T20:50:39.238Z,46
2014-07-15T20:50:58.331Z,46
2014-07-15T20:51:49.631Z,46
2014-07-15T20:52:07.804Z,46
2014-07-15T20:52:26.695Z,46
2014-07-15T20:52:44.695Z,46
2014-07-15T20:53:02.929Z,46
2014-07-15T20:53:21.556Z,46
2014-07-15T20:53:39.790Z,46
2014-07-15T20:53:57.994Z,46
2014-07-15T20:54:16.699Z,46
2014-07-15T20:54:34.699Z,46
2014-07-15T20:54:52.902Z,46
2014-07-15T20:55:11.138Z,46
2014-07-15T20:55:29.357Z,46
2014-07-15T20:55:47.888Z,46
2014-07-15T20:56:06.154Z,46
2014-07-15T20:56:24.359Z,46
2014-07-15T20:56:42.593Z,46
2014-07-15T20:57:00.828Z,46
2014-07-15T20:57:19.049Z,46
2014-07-15T20:57:37.284Z,46
2014-07-15T20:57:55.518Z,46
2014-07-15T20:58:13.755Z,46
2014-07-15T20:58:31.973Z,46
2014-07-15T20:58:50.208Z,46
2014-07-15T20:59:08.426Z,46
2014-07-15T20:59:26.927Z,46
2014-07-15T20:59:59.459Z,46
2014-07-15T21:00:17.695Z,46
2014-07-15T21:00:35.929Z,46
2014-07-15T21:00:54.148Z,46
2014-07-15T21:01:12.367Z,46
2014-07-15T21:01:30.603Z,46
2014-07-15T21:01:48.822Z,46
2014-07-15T21:02:07.056Z,46
2014-07-15T21:02:25.262Z,46
2014-07-15T21:02:43.480Z,46
2014-07-15T21:03:01.730Z,46
2014-07-15T21:03:19.951Z,46
2014-07-15T21:03:38.185Z,45
2014-07-15T21:03:56.420Z,45
2014-07-15T21:04:28.781Z,45
2014-07-15T21:04:47.031Z,46
2014-07-15T21:05:05.266Z,45
2014-07-15T21:05:23.484Z,45
2014-07-15T21:05:41.705Z,45
2014-07-15T21:06:00.158Z,45
2014-07-15T21:06:18.814Z,45
2014-07-15T21:06:37.051Z,45
2014-07-15T21:06:55.285Z,45
2014-07-15T21:07:13.535Z,45
2014-07-15T21:07:32.131Z,45
2014-07-15T21:07:50.334Z,45
2014-07-15T21:08:08.740Z,45
2014-07-15T21:08:26.928Z,45
2014-07-15T21:08:45.164Z,45
2014-07-15T21:09:03.399Z,45
2014-07-15T21:09:21.602Z,45
2014-07-15T21:09:39.869Z,45
2014-07-15T21:09:58.088Z,45
2014-07-15T21:10:16.322Z,45
2014-07-15T21:10:34.559Z,45
2014-07-15T21:10:52.887Z,45
2014-07-15T21:11:11.262Z,45
2014-07-15T21:11:29.951Z,45
2014-07-15T21:11:47.936Z,45
2014-07-15T21:12:06.170Z,45
2014-07-15T21:12:24.420Z,45
2014-07-15T21:12:42.735Z,45
2014-07-15T21:13:00.985Z,45
2014-07-15T21:13:19.219Z,45
2014-07-15T21:13:51.596Z,45
2014-07-15T21:14:24.221Z,45
2014-07-15T21:14:42.629Z,45
2014-07-15T21:15:01.192Z,45
2014-07-15T21:15:19.426Z,45
2014-07-15T21:15:37.631Z,45
2014-07-15T21:15:55.866Z,45
2014-07-15T21:16:14.069Z,45
2014-07-15T21:16:32.522Z,45
2014-07-15T21:16:51.165Z,45
2014-07-15T21:17:09.383Z,45
2014-07-15T21:17:27.618Z,45
2014-07-15T21:17:45.838Z,45
2014-07-15T21:18:04.073Z,45
2014-07-15T21:18:22.307Z,45
2014-07-15T21:18:40.527Z,45
2014-07-15T21:18:58.761Z,45
2014-07-15T21:19:16.980Z,45
2014-07-15T21:19:35.199Z,45
2014-07-15T21:19:53.421Z,45
2014-07-15T21:20:11.639Z,45
2014-07-15T21:20:29.858Z,45
2014-07-15T21:20:48.109Z,45
2014-07-15T21:21:06.328Z,45
2014-07-15T21:21:24.547Z,45
2014-07-15T21:21:43.517Z,45
2014-07-15T21:22:01.674Z,45
2014-07-15T21:22:20.611Z,45
2014-07-15T21:22:38.549Z,45
2014-07-15T21:22:56.802Z,45
2014-07-15T21:23:15.270Z,45
2014-07-15T21:23:33.520Z,45
2014-07-15T21:23:51.740Z,45
2014-07-15T21:24:09.943Z,45
2014-07-15T21:24:28.662Z,45
2014-07-15T21:24:46.884Z,45
2014-07-15T21:25:05.134Z,45
2014-07-15T21:25:23.337Z,45
2014-07-15T21:25:41.571Z,45
2014-07-15T21:25:59.807Z,45
2014-07-15T21:26:18.182Z,45
2014-07-15T21:26:36.400Z,45
2014-07-15T21:27:08.793Z,45
2014-07-15T21:27:27.152Z,45
2014-07-15T21:27:45.373Z,45
2014-07-15T21:28:04.076Z,45
2014-07-15T21:28:22.311Z,45
2014-07-15T21:28:40.545Z,45
2014-07-15T21:29:13.593Z,45
2014-07-15T21:29:31.702Z,45
2014-07-15T21:30:04.079Z,45
2014-07-15T21:30:22.298Z,45
2014-07-15T21:30:40.595Z,45
2014-07-15T21:30:58.801Z,45
2014-07-15T21:31:17.051Z,45
2014-07-15T21:31:35.317Z,45
2014-07-15T21:31:53.522Z,45
2014-07-15T21:32:11.834Z,45
2014-07-15T21:32:30.006Z,45
2014-07-15T21:32:48.492Z,45
2014-07-15T21:33:06.680Z,45
2014-07-15T21:33:24.899Z,45
2014-07-15T21:33:43.383Z,45
2014-07-15T21:34:01.540Z,45
2014-07-15T21:34:20.165Z,45
2014-07-15T21:34:38.462Z,45
2014-07-15T21:34:57.386Z,45
2014-07-15T21:35:15.605Z,45
2014-07-15T21:35:33.839Z,45
2014-07-15T21:35:52.044Z,45
2014-07-15T21:36:10.279Z,45
2014-07-15T21:36:28.513Z,45
2014-07-15T21:36:46.747Z,45
2014-07-15T21:37:04.985Z,45
2014-07-15T21:37:23.188Z,45
2014-07-15T21:37:41.422Z,45
2014-07-15T21:37:59.642Z,45
2014-07-15T21:38:32.173Z,45
2014-07-15T21:38:50.753Z,45
2014-07-15T21:39:09.019Z,45
2014-07-15T21:39:27.253Z,45
2014-07-15T21:39:45.472Z,45
2014-07-15T21:40:03.709Z,45
2014-07-15T21:40:21.912Z,45
2014-07-15T21:40:40.412Z,45
2014-07-15T21:40:58.648Z,45
2014-07-15T21:41:16.867Z,45
2014-07-15T21:41:35.117Z,45
2014-07-15T21:41:53.353Z,45
2014-07-15T21:42:11.588Z,45
2014-07-15T21:42:29.853Z,45
2014-07-15T21:42:48.088Z,45
2014-07-15T21:43:06.340Z,45
2014-07-15T21:43:24.558Z,45
2014-07-15T21:43:42.777Z,45
2014-07-15T21:44:01.013Z,45
2014-07-15T21:44:19.357Z,45
2014-07-15T21:44:37.592Z,45
2014-07-15T21:44:55.969Z,45
2014-07-15T21:45:14.187Z,45
2014-07-15T21:45:32.406Z,45
2014-07-15T21:45:50.734Z,45
2014-07-15T21:46:09.127Z,45
2014-07-15T21:46:27.361Z,45
2014-07-15T21:46:45.611Z,45
2014-07-15T21:47:03.832Z,45
2014-07-15T21:47:22.238Z,45
2014-07-15T21:47:40.457Z,45
2014-07-15T21:47:58.677Z,45
2014-07-15T21:48:16.927Z,45
2014-07-15T21:48:35.286Z,45
2014-07-15T21:48:53.536Z,45
2014-07-15T21:49:11.805Z,45
2014-07-15T21:49:30.023Z,45
2014-07-15T21:49:48.227Z,45
2014-07-15T21:50:06.463Z,45
2014-07-15T21:50:24.697Z,45
2014-07-15T21:50:43.791Z,45
2014-07-15T21:51:01.994Z,45
2014-07-15T21:51:20.214Z,45
2014-07-15T21:51:38.464Z,45
2014-07-15T21:51:56.714Z,45
2014-07-15T21:52:14.919Z,45
2014-07-15T21:52:33.138Z,45
2014-07-15T21:52:51.419Z,45
2014-07-15T21:53:09.622Z,45
2014-07-15T21:53:27.828Z,45
2014-07-15T21:53:46.063Z,45
2014-07-15T21:54:04.297Z,45
2014-07-15T21:54:22.517Z,45
2014-07-15T21:54:40.782Z,45
2014-07-15T21:54:59.017Z,45
2014-07-15T21:55:17.254Z,45
2014-07-15T21:55:35.489Z,45
2014-07-15T21:55:53.707Z,45
2014-07-15T21:56:11.926Z,45
2014-07-15T21:56:30.161Z,45
2014-07-15T21:56:48.443Z,45
2014-07-15T21:57:06.661Z,45
2014-07-15T21:57:25.508Z,45
2014-07-15T21:57:43.477Z,45
2014-07-15T21:58:01.743Z,45
2014-07-15T21:58:20.010Z,45
2014-07-15T21:58:38.245Z,45
2014-07-15T21:58:56.463Z,45
2014-07-15T21:59:15.135Z,45
2014-07-15T21:59:33.387Z,45
2014-07-15T21:59:51.606Z,45
2014-07-15T22:00:09.856Z,45
2014-07-15T22:00:28.311Z,45
2014-07-15T22:00:46.514Z,45
2014-07-15T22:01:04.733Z,45
2014-07-15T22:01:37.140Z,45
2014-07-15T22:01:55.390Z,45
2014-07-15T22:02:13.671Z,45
2014-07-15T22:02:31.908Z,45
2014-07-15T22:02:50.158Z,45
2014-07-15T22:03:08.345Z,45
2014-07-15T22:03:26.582Z,45
2014-07-15T22:03:44.816Z,45
2014-07-15T22:04:03.050Z,45
2014-07-15T22:04:21.269Z,45
2014-07-15T22:04:39.506Z,45
2014-07-15T22:04:57.771Z,45
2014-07-15T22:05:15.974Z,45
2014-07-15T22:05:34.195Z,45
2014-07-15T22:05:52.508Z,45
2014-07-15T22:06:11.711Z,45
2014-07-15T22:06:30.026Z,45
2014-07-15T22:06:48.261Z,45
2014-07-15T22:07:08.120Z,45
2014-07-15T22:07:26.745Z,45
2014-07-15T22:07:45.856Z,45
2014-07-15T22:08:04.184Z,45
2014-07-15T22:08:22.403Z,45
2014-07-15T22:08:54.795Z,45
2014-07-15T22:09:13.014Z,45
2014-07-15T22:09:31.266Z,45
2014-07-15T22:09:49.578Z,44
2014-07-15T22:10:07.797Z,45
2014-07-15T22:10:26.000Z,45
2014-07-15T22:10:44.346Z,45
2014-07-15T22:11:02.533Z,45
2014-07-15T22:11:20.861Z,45
2014-07-15T22:11:39.083Z,44
2014-07-15T22:11:57.349Z,44
2014-07-15T22:12:15.599Z,44
2014-07-15T22:12:33.817Z,44
2014-07-15T22:12:52.023Z,44
2014-07-15T22:13:10.257Z,45
2014-07-15T22:13:28.491Z,44
2014-07-15T22:13:46.711Z,44
2014-07-15T22:14:04.930Z,44
2014-07-15T22:14:23.258Z,44
2014-07-15T22:14:41.508Z,44
2014-07-15T22:14:59.729Z,44
2014-07-15T22:15:17.947Z,44
2014-07-15T22:15:36.182Z,44
2014-07-15T22:15:54.434Z,44
2014-07-15T22:16:12.684Z,44
2014-07-15T22:16:30.887Z,45
2014-07-15T22:16:49.123Z,44
2014-07-15T22:17:21.608Z,44
2014-07-15T22:17:39.826Z,44
2014-07-15T22:17:58.063Z,44
2014-07-15T22:18:16.282Z,44
2014-07-15T22:18:34.625Z,44
2014-07-15T22:18:52.721Z,44
2014-07-15T22:19:10.955Z,44
2014-07-15T22:19:29.284Z,44
2014-07-15T22:19:47.502Z,44
2014-07-15T22:20:05.739Z,44
2014-07-15T22:20:23.973Z,44
2014-07-15T22:20:42.207Z,44
2014-07-15T22:21:00.584Z,44
2014-07-15T22:21:18.803Z,44
2014-07-15T22:21:37.053Z,44
2014-07-15T22:21:55.274Z,44
2014-07-15T22:22:13.493Z,44
2014-07-15T22:22:31.727Z,44
2014-07-15T22:22:49.915Z,44
2014-07-15T22:23:08.166Z,44
2014-07-15T22:23:26.400Z,44
2014-07-15T22:23:44.603Z,44
2014-07-15T22:24:02.840Z,44
2014-07-15T22:24:21.090Z,44
2014-07-15T22:24:39.325Z,44
2014-07-15T22:24:57.559Z,44
2014-07-15T22:25:15.764Z,44
2014-07-15T22:25:33.999Z,44
2014-07-15T22:25:52.233Z,44
2014-07-15T22:26:10.454Z,44
2014-07-15T22:26:28.688Z,44
2014-07-15T22:26:46.938Z,44
2014-07-15T22:27:05.159Z,44
2014-07-15T22:27:23.362Z,44
2014-07-15T22:27:41.643Z,44
2014-07-15T22:27:59.831Z,44
2014-07-15T22:28:18.082Z,44
2014-07-15T22:28:36.535Z,44
2014-07-15T22:28:54.566Z,44
2014-07-15T22:29:12.835Z,44
2014-07-15T22:29:31.069Z,44
2014-07-15T22:29:49.304Z,44
2014-07-15T22:30:07.507Z,44
2014-07-15T22:30:25.743Z,44
2014-07-15T22:30:43.962Z,44
2014-07-15T22:31:02.181Z,44
2014-07-15T22:31:20.401Z,44
2014-07-15T22:31:38.667Z,44
2014-07-15T22:31:56.886Z,44
2014-07-15T22:32:15.294Z,44
2014-07-15T22:32:33.341Z,44
2014-07-15T22:32:51.606Z,44
2014-07-15T22:33:09.810Z,44
2014-07-15T22:33:28.030Z,44
2014-07-15T22:33:46.249Z,44
2014-07-15T22:34:04.546Z,44
2014-07-15T22:34:22.782Z,44
2014-07-15T22:34:41.314Z,44
2014-07-15T22:35:00.329Z,44
2014-07-15T22:35:18.314Z,44
2014-07-15T22:35:36.534Z,44
2014-07-15T22:35:54.737Z,44
2014-07-15T22:36:12.972Z,44
2014-07-15T22:36:31.207Z,44
2014-07-15T22:36:49.457Z,44
2014-07-15T22:37:07.692Z,44
2014-07-15T22:37:26.398Z,44
2014-07-15T22:37:44.616Z,44
2014-07-15T22:38:03.257Z,44
2014-07-15T22:38:21.554Z,44
2014-07-15T22:38:39.775Z,44
2014-07-15T22:38:58.025Z,44
2014-07-15T22:39:16.243Z,44
2014-07-15T22:39:34.494Z,44
2014-07-15T22:39:52.713Z,44
2014-07-15T22:40:10.916Z,44
2014-07-15T22:40:29.166Z,44
2014-07-15T22:40:47.418Z,44
2014-07-15T22:41:05.637Z,44
2014-07-15T22:41:23.856Z,44
2014-07-15T22:41:42.608Z,44
2014-07-15T22:42:00.873Z,44
2014-07-15T22:42:19.530Z,44
2014-07-15T22:42:37.720Z,44
2014-07-15T22:42:56.158Z,44
2014-07-15T22:43:14.361Z,44
2014-07-15T22:43:32.595Z,44
2014-07-15T22:43:50.816Z,44
2014-07-15T22:44:09.050Z,44
2014-07-15T22:44:27.300Z,44
2014-07-15T22:44:45.521Z,44
2014-07-15T22:45:03.990Z,44
2014-07-15T22:45:22.037Z,44
2014-07-15T22:45:40.367Z,44
2014-07-15T22:45:58.632Z,44
2014-07-15T22:46:16.867Z,44
2014-07-15T22:46:35.086Z,44
2014-07-15T22:46:53.306Z,44
2014-07-15T22:47:11.572Z,44
2014-07-15T22:47:29.759Z,44
2014-07-15T22:47:47.995Z,44
2014-07-15T22:48:06.229Z,44
2014-07-15T22:48:24.448Z,44
2014-07-15T22:48:42.667Z,44
2014-07-15T22:49:00.888Z,44
2014-07-15T22:49:19.154Z,44
2014-07-15T22:49:37.388Z,44
2014-07-15T22:50:10.515Z,44
2014-07-15T22:50:29.734Z,45
2014-07-15T22:50:47.953Z,44
2014-07-15T22:51:06.204Z,44
2014-07-15T22:51:24.423Z,44
2014-07-15T22:51:42.657Z,44
2014-07-15T22:52:00.848Z,44
2014-07-15T22:52:19.113Z,44
2014-07-15T22:52:37.332Z,44
2014-07-15T22:52:55.535Z,44
2014-07-15T22:53:13.771Z,44
2014-07-15T22:53:31.990Z,44
2014-07-15T22:53:50.271Z,44
2014-07-15T22:54:08.477Z,44
2014-07-15T22:54:26.867Z,44
2014-07-15T22:54:45.367Z,44
2014-07-15T22:55:03.604Z,44
2014-07-15T22:55:23.010Z,44
2014-07-15T22:55:41.588Z,44
2014-07-15T22:55:59.840Z,44
2014-07-15T22:56:18.059Z,44
2014-07-15T22:56:36.324Z,44
2014-07-15T22:56:54.762Z,44
2014-07-15T22:57:13.013Z,44
2014-07-15T22:57:31.232Z,44
2014-07-15T22:57:49.497Z,44
2014-07-15T22:58:07.860Z,44
2014-07-15T22:58:26.094Z,44
2014-07-15T22:58:44.438Z,44
2014-07-15T22:59:02.656Z,44
2014-07-15T22:59:20.876Z,44
2014-07-15T22:59:39.095Z,44
2014-07-15T22:59:57.345Z,44
2014-07-15T23:00:15.550Z,44
2014-07-15T23:00:33.784Z,44
2014-07-15T23:00:52.019Z,44
2014-07-15T23:01:10.240Z,44
2014-07-15T23:01:28.458Z,44
2014-07-15T23:01:46.708Z,44
2014-07-15T23:02:05.115Z,44
2014-07-15T23:02:23.351Z,44
2014-07-15T23:02:41.585Z,44
2014-07-15T23:02:59.820Z,44
2014-07-15T23:03:18.056Z,44
2014-07-15T23:03:36.290Z,44
2014-07-15T23:03:54.697Z,44
2014-07-15T23:04:12.931Z,44
2014-07-15T23:04:31.168Z,44
2014-07-15T23:04:49.387Z,44
2014-07-15T23:05:07.606Z,44
2014-07-15T23:05:25.841Z,44
2014-07-15T23:05:44.091Z,44
2014-07-15T23:06:02.326Z,44
2014-07-15T23:06:20.544Z,44
2014-07-15T23:06:38.765Z,44
2014-07-15T23:06:57.000Z,44
2014-07-15T23:07:15.218Z,44
2014-07-15T23:07:33.423Z,44
2014-07-15T23:07:51.642Z,44
2014-07-15T23:08:09.892Z,44
2014-07-15T23:08:28.130Z,44
2014-07-15T23:08:46.958Z,44
2014-07-15T23:09:05.130Z,44
2014-07-15T23:09:23.412Z,44
2014-07-15T23:09:57.006Z,44
2014-07-15T23:10:15.224Z,44
2014-07-15T23:10:33.476Z,44
2014-07-15T23:10:51.695Z,44
2014-07-15T23:11:09.898Z,44
2014-07-15T23:11:28.150Z,44
2014-07-15T23:11:46.478Z,44
2014-07-15T23:12:04.713Z,44
2014-07-15T23:12:23.181Z,44
2014-07-15T23:12:42.277Z,44
2014-07-15T23:13:01.012Z,44
2014-07-15T23:13:19.012Z,44
2014-07-15T23:13:37.639Z,44
2014-07-15T23:13:56.685Z,44
2014-07-15T23:14:15.482Z,44
2014-07-15T23:14:34.734Z,44
2014-07-15T23:14:53.719Z,44
2014-07-15T23:15:11.953Z,44
2014-07-15T23:15:30.174Z,44
2014-07-15T23:15:48.424Z,44
2014-07-15T23:16:06.627Z,44
2014-07-15T23:16:24.846Z,44
2014-07-15T23:16:43.098Z,44
2014-07-15T23:17:01.316Z,44
2014-07-15T23:17:19.645Z,44
2014-07-15T23:17:37.850Z,44
2014-07-15T23:17:56.100Z,44
2014-07-15T23:18:14.303Z,44
2014-07-15T23:18:32.537Z,44
2014-07-15T23:18:50.758Z,44
2014-07-15T23:19:08.992Z,44
2014-07-15T23:19:27.227Z,44
2014-07-15T23:19:45.416Z,44
2014-07-15T23:20:03.651Z,44
2014-07-15T23:20:21.885Z,44
2014-07-15T23:20:40.119Z,44
2014-07-15T23:20:58.324Z,44
2014-07-15T23:21:16.559Z,44
2014-07-15T23:21:34.778Z,44
2014-07-15T23:21:53.014Z,44
2014-07-15T23:22:11.248Z,44
2014-07-15T23:22:29.451Z,44
2014-07-15T23:22:47.703Z,44
2014-07-15T23:23:05.938Z,44
2014-07-15T23:23:24.157Z,44
2014-07-15T23:23:42.375Z,44
2014-07-15T23:24:00.611Z,44
2014-07-15T23:24:18.845Z,44
2014-07-15T23:24:37.064Z,44
2014-07-15T23:24:55.285Z,44
2014-07-15T23:25:13.535Z,44
2014-07-15T23:25:31.753Z,44
2014-07-15T23:25:49.974Z,44
2014-07-15T23:26:08.208Z,44
2014-07-15T23:26:26.412Z,44
2014-07-15T23:26:44.662Z,44
2014-07-15T23:27:02.868Z,44
2014-07-15T23:27:21.086Z,44
2014-07-15T23:27:39.336Z,44
2014-07-15T23:27:57.573Z,44
2014-07-15T23:28:15.776Z,44
2014-07-15T23:28:33.995Z,44
2014-07-15T23:28:52.230Z,44
2014-07-15T23:29:10.464Z,44
2014-07-15T23:29:28.668Z,44
2014-07-15T23:29:46.902Z,44
2014-07-15T23:30:19.279Z,44
2014-07-15T23:30:37.513Z,44
2014-07-15T23:30:55.750Z,44
2014-07-15T23:31:13.968Z,44
2014-07-15T23:31:32.172Z,44
2014-07-15T23:31:50.390Z,44
2014-07-15T23:32:08.628Z,44
2014-07-15T23:32:26.878Z,44
2014-07-15T23:32:45.096Z,44
2014-07-15T23:33:03.332Z,44
2014-07-15T23:33:21.535Z,44
2014-07-15T23:33:39.785Z,44
2014-07-15T23:33:57.972Z,44
2014-07-15T23:34:16.224Z,44
2014-07-15T23:34:34.443Z,44
2014-07-15T23:34:52.646Z,44
2014-07-15T23:35:10.883Z,44
2014-07-15T23:35:29.117Z,44
2014-07-15T23:35:47.351Z,44
2014-07-15T23:36:05.588Z,44
2014-07-15T23:36:23.775Z,44
2014-07-15T23:36:42.010Z,44
2014-07-15T23:37:00.228Z,44
2014-07-15T23:37:18.450Z,44
2014-07-15T23:37:36.685Z,44
2014-07-15T23:37:54.919Z,44
2014-07-15T23:38:13.140Z,44
2014-07-15T23:38:31.358Z,44
2014-07-15T23:38:49.608Z,44
2014-07-15T23:39:07.843Z,44
2014-07-15T23:39:26.079Z,44
2014-07-15T23:39:44.282Z,44
2014-07-15T23:40:02.501Z,44
2014-07-15T23:40:20.768Z,44
2014-07-15T23:40:38.971Z,44
2014-07-15T23:40:57.190Z,44
2014-07-15T23:41:15.457Z,44
2014-07-15T23:41:33.676Z,44
2014-07-15T23:41:51.879Z,44
2014-07-15T23:42:10.129Z,44
2014-07-15T23:42:28.350Z,44
2014-07-15T23:42:46.569Z,44
2014-07-15T23:43:04.787Z,44
2014-07-15T23:43:23.024Z,44
2014-07-15T23:43:41.242Z,44
2014-07-15T23:43:59.461Z,44
2014-07-15T23:44:17.682Z,44
2014-07-15T23:44:35.932Z,44
2014-07-15T23:44:54.135Z,44
2014-07-15T23:45:12.354Z,44
2014-07-15T23:45:30.590Z,44
2014-07-15T23:45:48.809Z,44
2014-07-15T23:46:07.059Z,44
2014-07-15T23:46:25.280Z,44
2014-07-15T23:46:43.483Z,44
2014-07-15T23:47:01.748Z,44
2014-07-15T23:47:19.967Z,44
2014-07-15T23:47:38.172Z,44
2014-07-15T23:47:56.407Z,44
2014-07-15T23:48:14.641Z,44
2014-07-15T23:48:32.862Z,44
2014-07-15T23:48:51.065Z,44
2014-07-15T23:49:09.299Z,44
2014-07-15T23:49:27.551Z,44
2014-07-15T23:49:45.770Z,44
2014-07-15T23:50:04.020Z,44
2014-07-15T23:50:22.223Z,44
2014-07-15T23:50:40.475Z,44
2014-07-15T23:50:58.710Z,44
2014-07-15T23:51:16.913Z,44
2014-07-15T23:51:35.133Z,44
2014-07-15T23:51:53.383Z,44
2014-07-15T23:52:11.602Z,44
2014-07-15T23:52:29.823Z,44
2014-07-15T23:52:48.042Z,44
2014-07-15T23:53:06.292Z,44
2014-07-15T23:53:24.495Z,44
2014-07-15T23:53:42.731Z,44
2014-07-15T23:54:00.966Z,44
2014-07-15T23:54:19.169Z,44
2014-07-15T23:54:37.405Z,44
2014-07-15T23:54:55.608Z,44
2014-07-15T23:55:13.843Z,44
2014-07-15T23:55:32.095Z,44
2014-07-15T23:55:50.313Z,44
2014-07-15T23:56:08.516Z,44
2014-07-15T23:56:26.766Z,44
2014-07-15T23:56:45.017Z,44
2014-07-15T23:57:03.236Z,44
2014-07-15T23:57:21.439Z,44
2014-07-15T23:57:39.676Z,44
2014-07-15T23:57:57.894Z,44
2014-07-15T23:58:16.144Z,44
2014-07-15T23:58:34.366Z,44
2014-07-15T23:58:52.601Z,44
2014-07-15T23:59:10.819Z,44
2014-07-15T23:59:29.038Z,44
2014-07-15T23:59:47.273Z,44
